sensor_id;sensor_type;location;lat;lon;timestamp;P1;durP1;ratioP1;P2;durP2;ratioP2
37299;SDS011;23184;51.902;12.836;2023-02-11T07:02:33;71.05;;;31.08;;
37299;SDS011;23184;51.902;12.836;2023-02-11T07:04:58;69.05;;;30.92;;
37299;SDS011;23184;51.902;12.836;2023-02-11T07:07:24;67.07;;;31.55;;
37299;SDS011;23184;51.902;12.836;2023-02-11T07:09:49;61.13;;;31.33;;
37299;SDS011;23184;51.902;12.836;2023-02-11T07:12:14;71.35;;;34.90;;
37299;SDS011;23184;51.902;12.836;2023-02-11T07:14:40;59.20;;;28.77;;
37299;SDS011;23184;51.902;12.836;2023-02-11T07:17:06;68.68;;;29.85;;
37299;SDS011;23184;51.902;12.836;2023-02-11T07:19:31;68.35;;;31.17;;
37299;SDS011;23184;51.902;12.836;2023-02-11T07:21:56;57.20;;;29.45;;
37299;SDS011;23184;51.902;12.836;2023-02-11T07:24:22;69.55;;;30.27;;
37299;SDS011;23184;51.902;12.836;2023-02-11T07:26:48;62.05;;;30.23;;
37299;SDS011;23184;51.902;12.836;2023-02-11T07:29:14;61.50;;;29.60;;
37299;SDS011;23184;51.902;12.836;2023-02-11T07:31:39;64.57;;;28.95;;
37299;SDS011;23184;51.902;12.836;2023-02-11T07:34:05;61.78;;;29.02;;
37299;SDS011;23184;51.902;12.836;2023-02-11T07:36:30;61.28;;;29.30;;
37299;SDS011;23184;51.902;12.836;2023-02-11T07:38:56;62.40;;;29.13;;
37299;SDS011;23184;51.902;12.836;2023-02-11T07:41:22;64.43;;;30.08;;
37299;SDS011;23184;51.902;12.836;2023-02-11T07:43:49;71.63;;;31.80;;
37299;SDS011;23184;51.902;12.836;2023-02-11T07:46:18;57.85;;;27.85;;
37299;SDS011;23184;51.902;12.836;2023-02-11T07:48:49;60.17;;;28.35;;
37299;SDS011;23184;51.902;12.836;2023-02-11T07:51:19;63.33;;;29.45;;
37299;SDS011;23184;51.902;12.836;2023-02-11T07:53:46;67.13;;;31.13;;
37299;SDS011;23184;51.902;12.836;2023-02-11T07:56:12;66.60;;;29.80;;
37299;SDS011;23184;51.902;12.836;2023-02-11T07:58:39;61.72;;;29.90;;
37299;SDS011;23184;51.902;12.836;2023-02-11T08:01:09;65.30;;;29.08;;
37299;SDS011;23184;51.902;12.836;2023-02-11T08:03:36;64.45;;;29.30;;
37299;SDS011;23184;51.902;12.836;2023-02-11T08:06:06;63.72;;;30.27;;
37299;SDS011;23184;51.902;12.836;2023-02-11T08:08:34;66.97;;;29.95;;
37299;SDS011;23184;51.902;12.836;2023-02-11T08:11:04;61.92;;;31.15;;
37299;SDS011;23184;51.902;12.836;2023-02-11T08:13:31;64.13;;;28.80;;
37299;SDS011;23184;51.902;12.836;2023-02-11T08:15:57;66.45;;;30.30;;
37299;SDS011;23184;51.902;12.836;2023-02-11T08:18:22;62.30;;;29.67;;
37299;SDS011;23184;51.902;12.836;2023-02-11T08:20:49;58.55;;;28.48;;
37299;SDS011;23184;51.902;12.836;2023-02-11T08:23:14;63.08;;;27.95;;
37299;SDS011;23184;51.902;12.836;2023-02-11T08:25:40;57.80;;;27.42;;
37299;SDS011;23184;51.902;12.836;2023-02-11T08:28:05;60.38;;;27.17;;
37299;SDS011;23184;51.902;12.836;2023-02-11T08:30:33;59.20;;;26.40;;
37299;SDS011;23184;51.902;12.836;2023-02-11T08:32:59;58.13;;;26.55;;
37299;SDS011;23184;51.902;12.836;2023-02-11T08:35:24;57.35;;;26.48;;
37299;SDS011;23184;51.902;12.836;2023-02-11T08:37:50;52.70;;;26.23;;
37299;SDS011;23184;51.902;12.836;2023-02-11T08:40:15;57.13;;;24.80;;
37299;SDS011;23184;51.902;12.836;2023-02-11T08:42:41;55.67;;;26.70;;
37299;SDS011;23184;51.902;12.836;2023-02-11T08:45:07;60.97;;;26.05;;
37299;SDS011;23184;51.902;12.836;2023-02-11T08:47:34;50.75;;;24.55;;
37299;SDS011;23184;51.902;12.836;2023-02-11T08:50:00;55.97;;;27.30;;
37299;SDS011;23184;51.902;12.836;2023-02-11T08:52:25;51.45;;;24.35;;
37299;SDS011;23184;51.902;12.836;2023-02-11T08:54:51;46.25;;;25.30;;
37299;SDS011;23184;51.902;12.836;2023-02-11T08:57:16;48.60;;;23.33;;
37299;SDS011;23184;51.902;12.836;2023-02-11T08:59:42;50.25;;;24.58;;
37299;SDS011;23184;51.902;12.836;2023-02-11T09:02:11;52.35;;;24.85;;
37299;SDS011;23184;51.902;12.836;2023-02-11T09:04:37;46.33;;;24.55;;
37299;SDS011;23184;51.902;12.836;2023-02-11T09:07:02;46.78;;;22.38;;
37299;SDS011;23184;51.902;12.836;2023-02-11T09:09:28;44.75;;;22.45;;
37299;SDS011;23184;51.902;12.836;2023-02-11T09:11:54;44.35;;;22.70;;
37299;SDS011;23184;51.902;12.836;2023-02-11T09:14:21;39.47;;;21.15;;
37299;SDS011;23184;51.902;12.836;2023-02-11T09:16:47;45.58;;;25.23;;
37299;SDS011;23184;51.902;12.836;2023-02-11T09:19:14;45.63;;;22.15;;
37299;SDS011;23184;51.902;12.836;2023-02-11T09:21:40;44.38;;;24.45;;
37299;SDS011;23184;51.902;12.836;2023-02-11T09:24:05;40.20;;;20.67;;
37299;SDS011;23184;51.902;12.836;2023-02-11T09:26:32;44.42;;;22.13;;
37299;SDS011;23184;51.902;12.836;2023-02-11T09:28:58;40.10;;;19.20;;
37299;SDS011;23184;51.902;12.836;2023-02-11T09:31:25;39.17;;;20.20;;
37299;SDS011;23184;51.902;12.836;2023-02-11T09:33:53;46.78;;;21.60;;
37299;SDS011;23184;51.902;12.836;2023-02-11T09:36:24;42.25;;;22.52;;
37299;SDS011;23184;51.902;12.836;2023-02-11T09:39:05;47.42;;;27.50;;
37299;SDS011;23184;51.902;12.836;2023-02-11T09:44:37;38.47;;;21.33;;
37299;SDS011;23184;51.902;12.836;2023-02-11T09:47:04;39.15;;;19.10;;
37299;SDS011;23184;51.902;12.836;2023-02-11T09:50:04;39.72;;;19.35;;
37299;SDS011;23184;51.902;12.836;2023-02-11T09:52:39;38.47;;;18.65;;
37299;SDS011;23184;51.902;12.836;2023-02-11T09:55:20;40.08;;;21.50;;
37299;SDS011;23184;51.902;12.836;2023-02-11T09:57:48;38.33;;;20.58;;
37299;SDS011;23184;51.902;12.836;2023-02-11T10:00:16;39.78;;;19.20;;
37299;SDS011;23184;51.902;12.836;2023-02-11T10:08:33;38.58;;;20.25;;
37299;SDS011;23184;51.902;12.836;2023-02-11T10:11:58;37.08;;;19.05;;
37299;SDS011;23184;51.902;12.836;2023-02-11T10:14:16;40.53;;;19.08;;
37299;SDS011;23184;51.902;12.836;2023-02-11T10:22:27;34.63;;;20.13;;
37299;SDS011;23184;51.902;12.836;2023-02-11T10:25:16;37.70;;;19.30;;
37299;SDS011;23184;51.902;12.836;2023-02-11T10:27:49;37.83;;;19.70;;
37299;SDS011;23184;51.902;12.836;2023-02-11T10:30:32;35.60;;;18.23;;
37299;SDS011;23184;51.902;12.836;2023-02-11T10:33:14;40.30;;;20.27;;
37299;SDS011;23184;51.902;12.836;2023-02-11T10:35:49;38.78;;;20.08;;
37299;SDS011;23184;51.902;12.836;2023-02-11T10:38:14;40.95;;;19.70;;
37299;SDS011;23184;51.902;12.836;2023-02-11T10:40:40;39.65;;;20.55;;
37299;SDS011;23184;51.902;12.836;2023-02-11T10:43:12;40.60;;;20.35;;
37299;SDS011;23184;51.902;12.836;2023-02-11T10:45:41;38.30;;;20.88;;
37299;SDS011;23184;51.902;12.836;2023-02-11T10:51:07;42.80;;;20.60;;
37299;SDS011;23184;51.902;12.836;2023-02-11T10:53:39;39.45;;;21.17;;
37299;SDS011;23184;51.902;12.836;2023-02-11T10:56:05;39.70;;;20.38;;
37299;SDS011;23184;51.902;12.836;2023-02-11T11:01:38;39.97;;;21.85;;
37299;SDS011;23184;51.902;12.836;2023-02-11T11:07:19;36.75;;;19.10;;
37299;SDS011;23184;51.902;12.836;2023-02-11T11:09:49;41.72;;;21.33;;
37299;SDS011;23184;51.902;12.836;2023-02-11T11:12:38;40.20;;;21.85;;
37299;SDS011;23184;51.902;12.836;2023-02-11T11:17:42;42.70;;;22.00;;
37299;SDS011;23184;51.902;12.836;2023-02-11T11:20:17;41.60;;;20.80;;
37299;SDS011;23184;51.902;12.836;2023-02-11T11:22:43;39.55;;;21.23;;
37299;SDS011;23184;51.902;12.836;2023-02-11T11:25:20;39.97;;;20.40;;
37299;SDS011;23184;51.902;12.836;2023-02-11T11:27:50;40.95;;;19.58;;
37299;SDS011;23184;51.902;12.836;2023-02-11T11:30:18;43.75;;;21.05;;
37299;SDS011;23184;51.902;12.836;2023-02-11T11:32:44;40.33;;;20.13;;
37299;SDS011;23184;51.902;12.836;2023-02-11T11:35:20;44.00;;;20.88;;
37299;SDS011;23184;51.902;12.836;2023-02-11T11:37:53;44.60;;;21.90;;
37299;SDS011;23184;51.902;12.836;2023-02-11T11:40:24;45.45;;;21.83;;
37299;SDS011;23184;51.902;12.836;2023-02-11T11:45:53;42.17;;;19.95;;
37299;SDS011;23184;51.902;12.836;2023-02-11T11:48:23;43.25;;;20.58;;
37299;SDS011;23184;51.902;12.836;2023-02-11T11:50:53;41.35;;;24.90;;
37299;SDS011;23184;51.902;12.836;2023-02-11T11:53:23;43.42;;;21.15;;
37299;SDS011;23184;51.902;12.836;2023-02-11T11:56:32;40.60;;;21.50;;
37299;SDS011;23184;51.902;12.836;2023-02-11T11:59:01;46.55;;;21.05;;
37299;SDS011;23184;51.902;12.836;2023-02-11T12:07:31;38.55;;;20.52;;
37299;SDS011;23184;51.902;12.836;2023-02-11T12:16:14;44.63;;;21.10;;
37299;SDS011;23184;51.902;12.836;2023-02-11T12:19:12;38.63;;;20.08;;
37299;SDS011;23184;51.902;12.836;2023-02-11T12:27:54;41.20;;;21.55;;
37299;SDS011;23184;51.902;12.836;2023-02-11T12:31:01;40.17;;;22.08;;
37299;SDS011;23184;51.902;12.836;2023-02-11T12:55:57;45.75;;;22.08;;
37299;SDS011;23184;51.902;12.836;2023-02-11T12:58:33;66.93;;;31.52;;
37299;SDS011;23184;51.902;12.836;2023-02-11T13:01:02;47.15;;;24.63;;
37299;SDS011;23184;51.902;12.836;2023-02-11T13:06:32;46.50;;;23.67;;
37299;SDS011;23184;51.902;12.836;2023-02-11T13:09:10;42.95;;;23.15;;
37299;SDS011;23184;51.902;12.836;2023-02-11T13:11:43;46.65;;;24.15;;
37299;SDS011;23184;51.902;12.836;2023-02-11T13:14:35;47.67;;;23.17;;
37299;SDS011;23184;51.902;12.836;2023-02-11T13:17:03;42.83;;;21.75;;
37299;SDS011;23184;51.902;12.836;2023-02-11T13:19:43;41.75;;;22.17;;
37299;SDS011;23184;51.902;12.836;2023-02-11T13:22:16;45.78;;;22.48;;
37299;SDS011;23184;51.902;12.836;2023-02-11T13:25:04;50.15;;;22.67;;
37299;SDS011;23184;51.902;12.836;2023-02-11T13:30:46;40.50;;;21.95;;
37299;SDS011;23184;51.902;12.836;2023-02-11T13:33:17;51.00;;;23.40;;
37299;SDS011;23184;51.902;12.836;2023-02-11T13:35:47;45.97;;;23.23;;
37299;SDS011;23184;51.902;12.836;2023-02-11T13:38:32;44.33;;;21.80;;
37299;SDS011;23184;51.902;12.836;2023-02-11T13:41:05;44.85;;;22.52;;
37299;SDS011;23184;51.902;12.836;2023-02-11T13:44:04;50.55;;;24.00;;
37299;SDS011;23184;51.902;12.836;2023-02-11T13:46:46;47.55;;;23.15;;
37299;SDS011;23184;51.902;12.836;2023-02-11T13:49:25;48.13;;;23.33;;
37299;SDS011;23184;51.902;12.836;2023-02-11T13:51:54;48.17;;;23.02;;
37299;SDS011;23184;51.902;12.836;2023-02-11T13:54:25;47.88;;;24.27;;
37299;SDS011;23184;51.902;12.836;2023-02-11T13:57:15;39.47;;;22.75;;
37299;SDS011;23184;51.902;12.836;2023-02-11T13:59:46;44.42;;;23.73;;
37299;SDS011;23184;51.902;12.836;2023-02-11T14:10:47;47.35;;;25.02;;
37299;SDS011;23184;51.902;12.836;2023-02-11T14:13:25;53.88;;;24.20;;
37299;SDS011;23184;51.902;12.836;2023-02-11T14:23:47;39.28;;;20.85;;
37299;SDS011;23184;51.902;12.836;2023-02-11T14:28:46;40.22;;;19.98;;
37299;SDS011;23184;51.902;12.836;2023-02-11T14:31:26;36.17;;;20.00;;
37299;SDS011;23184;51.902;12.836;2023-02-11T14:42:25;37.72;;;20.38;;
37299;SDS011;23184;51.902;12.836;2023-02-11T14:44:54;33.45;;;18.42;;
37299;SDS011;23184;51.902;12.836;2023-02-11T14:47:24;39.28;;;20.05;;
37299;SDS011;23184;51.902;12.836;2023-02-11T14:49:55;35.00;;;16.45;;
37299;SDS011;23184;51.902;12.836;2023-02-11T14:52:27;33.33;;;18.10;;
37299;SDS011;23184;51.902;12.836;2023-02-11T14:54:59;37.97;;;19.45;;
37299;SDS011;23184;51.902;12.836;2023-02-11T14:57:38;41.03;;;18.15;;
37299;SDS011;23184;51.902;12.836;2023-02-11T15:00:13;41.50;;;19.95;;
37299;SDS011;23184;51.902;12.836;2023-02-11T15:02:45;46.85;;;23.95;;
37299;SDS011;23184;51.902;12.836;2023-02-11T15:05:15;37.83;;;18.67;;
37299;SDS011;23184;51.902;12.836;2023-02-11T15:07:47;69.88;;;35.13;;
37299;SDS011;23184;51.902;12.836;2023-02-11T15:10:18;36.47;;;18.50;;
37299;SDS011;23184;51.902;12.836;2023-02-11T15:12:50;41.67;;;21.42;;
37299;SDS011;23184;51.902;12.836;2023-02-11T15:15:16;61.88;;;29.52;;
37299;SDS011;23184;51.902;12.836;2023-02-11T15:17:41;43.55;;;22.95;;
37299;SDS011;23184;51.902;12.836;2023-02-11T15:20:14;34.83;;;18.00;;
37299;SDS011;23184;51.902;12.836;2023-02-11T15:22:44;39.95;;;20.30;;
37299;SDS011;23184;51.902;12.836;2023-02-11T15:25:12;32.47;;;18.20;;
37299;SDS011;23184;51.902;12.836;2023-02-11T15:27:42;38.63;;;18.77;;
37299;SDS011;23184;51.902;12.836;2023-02-11T15:32:50;32.25;;;18.15;;
37299;SDS011;23184;51.902;12.836;2023-02-11T15:35:22;35.28;;;17.95;;
37299;SDS011;23184;51.902;12.836;2023-02-11T15:37:48;42.33;;;21.25;;
37299;SDS011;23184;51.902;12.836;2023-02-11T15:40:15;83.90;;;32.38;;
37299;SDS011;23184;51.902;12.836;2023-02-11T15:42:53;60.67;;;26.92;;
37299;SDS011;23184;51.902;12.836;2023-02-11T15:47:48;70.38;;;31.40;;
37299;SDS011;23184;51.902;12.836;2023-02-11T15:50:22;58.40;;;28.00;;
37299;SDS011;23184;51.902;12.836;2023-02-11T15:52:50;53.58;;;23.95;;
37299;SDS011;23184;51.902;12.836;2023-02-11T15:55:17;37.92;;;18.20;;
37299;SDS011;23184;51.902;12.836;2023-02-11T15:57:44;37.58;;;18.67;;
37299;SDS011;23184;51.902;12.836;2023-02-11T16:00:18;34.78;;;17.20;;
37299;SDS011;23184;51.902;12.836;2023-02-11T16:02:46;36.92;;;19.52;;
37299;SDS011;23184;51.902;12.836;2023-02-11T16:05:31;31.42;;;17.17;;
37299;SDS011;23184;51.902;12.836;2023-02-11T16:11:01;39.05;;;19.95;;
37299;SDS011;23184;51.902;12.836;2023-02-11T16:13:32;39.80;;;22.10;;
37299;SDS011;23184;51.902;12.836;2023-02-11T16:16:16;35.05;;;18.33;;
37299;SDS011;23184;51.902;12.836;2023-02-11T16:18:46;32.42;;;17.58;;
37299;SDS011;23184;51.902;12.836;2023-02-11T16:21:16;29.70;;;16.48;;
37299;SDS011;23184;51.902;12.836;2023-02-11T16:23:51;33.95;;;16.40;;
37299;SDS011;23184;51.902;12.836;2023-02-11T16:26:26;32.17;;;16.50;;
37299;SDS011;23184;51.902;12.836;2023-02-11T16:29:05;36.10;;;19.23;;
37299;SDS011;23184;51.902;12.836;2023-02-11T16:31:40;39.92;;;20.65;;
37299;SDS011;23184;51.902;12.836;2023-02-11T16:34:12;37.80;;;19.75;;
37299;SDS011;23184;51.902;12.836;2023-02-11T16:36:40;40.53;;;22.33;;
37299;SDS011;23184;51.902;12.836;2023-02-11T16:39:06;38.20;;;20.73;;
37299;SDS011;23184;51.902;12.836;2023-02-11T16:41:31;33.15;;;19.50;;
37299;SDS011;23184;51.902;12.836;2023-02-11T16:43:57;38.00;;;20.02;;
37299;SDS011;23184;51.902;12.836;2023-02-11T16:46:23;33.55;;;18.83;;
37299;SDS011;23184;51.902;12.836;2023-02-11T16:48:48;36.33;;;19.55;;
37299;SDS011;23184;51.902;12.836;2023-02-11T16:51:14;36.90;;;20.48;;
37299;SDS011;23184;51.902;12.836;2023-02-11T16:53:40;37.38;;;20.65;;
37299;SDS011;23184;51.902;12.836;2023-02-11T16:56:05;34.85;;;18.52;;
37299;SDS011;23184;51.902;12.836;2023-02-11T16:58:34;29.02;;;16.85;;
37299;SDS011;23184;51.902;12.836;2023-02-11T17:00:59;30.98;;;15.98;;
37299;SDS011;23184;51.902;12.836;2023-02-11T17:03:25;41.13;;;19.73;;
37299;SDS011;23184;51.902;12.836;2023-02-11T17:05:52;36.55;;;18.90;;
37299;SDS011;23184;51.902;12.836;2023-02-11T17:08:18;40.42;;;21.05;;
37299;SDS011;23184;51.902;12.836;2023-02-11T17:10:43;32.95;;;18.45;;
37299;SDS011;23184;51.902;12.836;2023-02-11T17:13:09;40.58;;;18.92;;
37299;SDS011;23184;51.902;12.836;2023-02-11T17:15:34;34.47;;;17.90;;
37299;SDS011;23184;51.902;12.836;2023-02-11T17:18:00;40.40;;;18.45;;
37299;SDS011;23184;51.902;12.836;2023-02-11T17:20:26;30.00;;;15.85;;
37299;SDS011;23184;51.902;12.836;2023-02-11T17:22:51;27.33;;;16.17;;
37299;SDS011;23184;51.902;12.836;2023-02-11T17:25:17;29.08;;;16.27;;
37299;SDS011;23184;51.902;12.836;2023-02-11T17:27:43;29.25;;;16.45;;
37299;SDS011;23184;51.902;12.836;2023-02-11T17:30:09;42.63;;;21.13;;
37299;SDS011;23184;51.902;12.836;2023-02-11T17:32:35;28.88;;;15.90;;
37299;SDS011;23184;51.902;12.836;2023-02-11T17:35:01;33.33;;;16.45;;
37299;SDS011;23184;51.902;12.836;2023-02-11T17:37:27;31.27;;;16.80;;
37299;SDS011;23184;51.902;12.836;2023-02-11T17:39:53;34.88;;;18.08;;
37299;SDS011;23184;51.902;12.836;2023-02-11T17:42:18;33.45;;;18.38;;
37299;SDS011;23184;51.902;12.836;2023-02-11T17:44:44;30.02;;;15.73;;
37299;SDS011;23184;51.902;12.836;2023-02-11T17:47:10;29.98;;;15.88;;
37299;SDS011;23184;51.902;12.836;2023-02-11T17:49:36;28.52;;;15.90;;
37299;SDS011;23184;51.902;12.836;2023-02-11T17:52:02;31.42;;;16.67;;
37299;SDS011;23184;51.902;12.836;2023-02-11T17:54:27;33.15;;;17.13;;
37299;SDS011;23184;51.902;12.836;2023-02-11T17:56:53;34.85;;;16.48;;
37299;SDS011;23184;51.902;12.836;2023-02-11T17:59:19;26.67;;;15.52;;
37299;SDS011;23184;51.902;12.836;2023-02-11T18:01:44;31.50;;;17.60;;
37299;SDS011;23184;51.902;12.836;2023-02-11T18:04:11;30.17;;;16.48;;
37299;SDS011;23184;51.902;12.836;2023-02-11T18:06:39;35.22;;;16.98;;
37299;SDS011;23184;51.902;12.836;2023-02-11T18:09:04;27.20;;;15.55;;
37299;SDS011;23184;51.902;12.836;2023-02-11T18:11:31;29.17;;;15.65;;
37299;SDS011;23184;51.902;12.836;2023-02-11T18:13:58;30.15;;;16.60;;
37299;SDS011;23184;51.902;12.836;2023-02-11T18:16:24;26.75;;;14.70;;
37299;SDS011;23184;51.902;12.836;2023-02-11T18:18:52;33.20;;;17.35;;
37299;SDS011;23184;51.902;12.836;2023-02-11T18:21:18;27.85;;;14.60;;
37299;SDS011;23184;51.902;12.836;2023-02-11T18:23:45;28.30;;;14.23;;
37299;SDS011;23184;51.902;12.836;2023-02-11T18:26:11;29.90;;;16.17;;
37299;SDS011;23184;51.902;12.836;2023-02-11T18:28:38;29.63;;;15.48;;
37299;SDS011;23184;51.902;12.836;2023-02-11T18:31:05;31.50;;;15.05;;
37299;SDS011;23184;51.902;12.836;2023-02-11T18:33:32;32.17;;;15.90;;
37299;SDS011;23184;51.902;12.836;2023-02-11T18:35:57;30.73;;;16.88;;
37299;SDS011;23184;51.902;12.836;2023-02-11T18:38:23;43.30;;;19.35;;
37299;SDS011;23184;51.902;12.836;2023-02-11T18:40:49;37.80;;;18.67;;
37299;SDS011;23184;51.902;12.836;2023-02-11T18:43:16;32.67;;;19.27;;
37299;SDS011;23184;51.902;12.836;2023-02-11T18:45:43;36.92;;;18.48;;
37299;SDS011;23184;51.902;12.836;2023-02-11T18:48:09;40.20;;;19.67;;
37299;SDS011;23184;51.902;12.836;2023-02-11T18:50:35;35.72;;;18.75;;
37299;SDS011;23184;51.902;12.836;2023-02-11T18:53:01;35.45;;;18.48;;
37299;SDS011;23184;51.902;12.836;2023-02-11T18:55:26;37.88;;;19.83;;
37299;SDS011;23184;51.902;12.836;2023-02-11T18:57:52;37.08;;;19.35;;
37299;SDS011;23184;51.902;12.836;2023-02-11T19:00:18;38.40;;;19.65;;
37299;SDS011;23184;51.902;12.836;2023-02-11T19:02:43;37.97;;;19.65;;
37299;SDS011;23184;51.902;12.836;2023-02-11T19:05:09;35.63;;;18.85;;
37299;SDS011;23184;51.902;12.836;2023-02-11T19:07:35;35.85;;;18.35;;
37299;SDS011;23184;51.902;12.836;2023-02-11T19:10:01;32.95;;;18.42;;
37299;SDS011;23184;51.902;12.836;2023-02-11T19:12:26;36.42;;;18.30;;
37299;SDS011;23184;51.902;12.836;2023-02-11T19:14:52;39.92;;;19.85;;
37299;SDS011;23184;51.902;12.836;2023-02-11T19:17:17;33.42;;;17.90;;
37299;SDS011;23184;51.902;12.836;2023-02-11T19:19:43;32.75;;;17.55;;
37299;SDS011;23184;51.902;12.836;2023-02-11T19:22:09;30.30;;;16.02;;
37299;SDS011;23184;51.902;12.836;2023-02-11T19:24:34;31.33;;;17.45;;
37299;SDS011;23184;51.902;12.836;2023-02-11T19:27:01;32.05;;;17.33;;
37299;SDS011;23184;51.902;12.836;2023-02-11T19:29:28;32.38;;;17.83;;
37299;SDS011;23184;51.902;12.836;2023-02-11T19:31:57;35.05;;;18.75;;
37299;SDS011;23184;51.902;12.836;2023-02-11T19:34:22;37.63;;;19.52;;
37299;SDS011;23184;51.902;12.836;2023-02-11T19:36:48;36.25;;;18.92;;
37299;SDS011;23184;51.902;12.836;2023-02-11T19:39:14;37.35;;;19.63;;
37299;SDS011;23184;51.902;12.836;2023-02-11T19:41:40;36.53;;;19.98;;
37299;SDS011;23184;51.902;12.836;2023-02-11T19:44:05;47.22;;;24.13;;
37299;SDS011;23184;51.902;12.836;2023-02-11T19:46:33;38.40;;;20.75;;
37299;SDS011;23184;51.902;12.836;2023-02-11T19:49:00;35.70;;;19.17;;
37299;SDS011;23184;51.902;12.836;2023-02-11T19:51:27;54.97;;;26.75;;
37299;SDS011;23184;51.902;12.836;2023-02-11T19:53:53;49.85;;;22.92;;
37299;SDS011;23184;51.902;12.836;2023-02-11T19:56:18;68.53;;;30.98;;
37299;SDS011;23184;51.902;12.836;2023-02-11T19:58:44;62.92;;;29.02;;
37299;SDS011;23184;51.902;12.836;2023-02-11T20:01:14;61.85;;;28.95;;
37299;SDS011;23184;51.902;12.836;2023-02-11T20:03:41;69.03;;;30.48;;
37299;SDS011;23184;51.902;12.836;2023-02-11T20:06:07;72.28;;;37.17;;
37299;SDS011;23184;51.902;12.836;2023-02-11T20:08:35;86.82;;;39.03;;
37299;SDS011;23184;51.902;12.836;2023-02-11T20:11:05;60.40;;;29.30;;
37299;SDS011;23184;51.902;12.836;2023-02-11T20:13:32;47.63;;;24.35;;
37299;SDS011;23184;51.902;12.836;2023-02-11T20:16:02;47.78;;;23.60;;
37299;SDS011;23184;51.902;12.836;2023-02-11T20:18:28;54.75;;;25.67;;
37299;SDS011;23184;51.902;12.836;2023-02-11T20:20:54;50.67;;;23.50;;
37299;SDS011;23184;51.902;12.836;2023-02-11T20:23:19;40.45;;;21.63;;
37299;SDS011;23184;51.902;12.836;2023-02-11T20:25:45;41.90;;;21.17;;
37299;SDS011;23184;51.902;12.836;2023-02-11T20:28:10;43.00;;;21.63;;
37299;SDS011;23184;51.902;12.836;2023-02-11T20:30:36;39.78;;;20.70;;
37299;SDS011;23184;51.902;12.836;2023-02-11T20:33:01;43.33;;;22.13;;
37299;SDS011;23184;51.902;12.836;2023-02-11T20:35:26;50.03;;;23.00;;
37299;SDS011;23184;51.902;12.836;2023-02-11T20:37:52;44.28;;;21.75;;
37299;SDS011;23184;51.902;12.836;2023-02-11T20:40:17;46.08;;;22.58;;
37299;SDS011;23184;51.902;12.836;2023-02-11T20:42:43;46.28;;;22.00;;
37299;SDS011;23184;51.902;12.836;2023-02-11T20:45:08;48.83;;;23.58;;
37299;SDS011;23184;51.902;12.836;2023-02-11T20:47:35;47.90;;;23.25;;
37299;SDS011;23184;51.902;12.836;2023-02-11T20:50:01;51.53;;;23.13;;
37299;SDS011;23184;51.902;12.836;2023-02-11T20:52:27;52.67;;;22.88;;
37299;SDS011;23184;51.902;12.836;2023-02-11T20:54:52;49.70;;;22.83;;
37299;SDS011;23184;51.902;12.836;2023-02-11T20:57:18;51.70;;;24.17;;
37299;SDS011;23184;51.902;12.836;2023-02-11T20:59:43;52.60;;;23.92;;
37299;SDS011;23184;51.902;12.836;2023-02-11T21:02:08;44.13;;;22.70;;
37299;SDS011;23184;51.902;12.836;2023-02-11T21:04:36;40.25;;;19.77;;
37299;SDS011;23184;51.902;12.836;2023-02-11T21:07:02;36.17;;;18.75;;
37299;SDS011;23184;51.902;12.836;2023-02-11T21:09:29;32.60;;;18.10;;
37299;SDS011;23184;51.902;12.836;2023-02-11T21:11:56;47.58;;;23.33;;
37299;SDS011;23184;51.902;12.836;2023-02-11T21:14:23;48.42;;;23.75;;
37299;SDS011;23184;51.902;12.836;2023-02-11T21:16:50;46.45;;;23.02;;
37299;SDS011;23184;51.902;12.836;2023-02-11T21:19:16;51.65;;;23.80;;
37299;SDS011;23184;51.902;12.836;2023-02-11T21:21:42;49.50;;;23.20;;
37299;SDS011;23184;51.902;12.836;2023-02-11T21:24:07;53.05;;;23.88;;
37299;SDS011;23184;51.902;12.836;2023-02-11T21:26:34;53.80;;;24.73;;
37299;SDS011;23184;51.902;12.836;2023-02-11T21:29:03;58.65;;;25.77;;
37299;SDS011;23184;51.902;12.836;2023-02-11T21:31:31;56.80;;;24.55;;
37299;SDS011;23184;51.902;12.836;2023-02-11T21:33:57;58.80;;;24.77;;
37299;SDS011;23184;51.902;12.836;2023-02-11T21:36:24;54.20;;;24.45;;
37299;SDS011;23184;51.902;12.836;2023-02-11T21:38:50;61.72;;;26.02;;
37299;SDS011;23184;51.902;12.836;2023-02-11T21:41:16;63.13;;;25.77;;
37299;SDS011;23184;51.902;12.836;2023-02-11T21:43:43;58.25;;;26.33;;
37299;SDS011;23184;51.902;12.836;2023-02-11T21:46:10;64.45;;;26.60;;
37299;SDS011;23184;51.902;12.836;2023-02-11T21:48:37;56.15;;;24.85;;
37299;SDS011;23184;51.902;12.836;2023-02-11T21:51:06;54.15;;;24.40;;
37299;SDS011;23184;51.902;12.836;2023-02-11T21:53:35;57.80;;;24.02;;
37299;SDS011;23184;51.902;12.836;2023-02-11T21:56:02;52.05;;;24.58;;
37299;SDS011;23184;51.902;12.836;2023-02-11T21:58:28;54.58;;;24.27;;
37299;SDS011;23184;51.902;12.836;2023-02-11T22:00:54;48.78;;;23.65;;
37299;SDS011;23184;51.902;12.836;2023-02-11T22:03:19;52.72;;;23.60;;
37299;SDS011;23184;51.902;12.836;2023-02-11T22:05:45;59.05;;;24.77;;
37299;SDS011;23184;51.902;12.836;2023-02-11T22:08:10;59.42;;;24.38;;
37299;SDS011;23184;51.902;12.836;2023-02-11T22:10:36;53.08;;;23.83;;
37299;SDS011;23184;51.902;12.836;2023-02-11T22:13:02;43.97;;;23.30;;
37299;SDS011;23184;51.902;12.836;2023-02-11T22:15:28;50.17;;;23.42;;
37299;SDS011;23184;51.902;12.836;2023-02-11T22:17:54;49.72;;;23.70;;
37299;SDS011;23184;51.902;12.836;2023-02-11T22:20:19;48.53;;;23.05;;
37299;SDS011;23184;51.902;12.836;2023-02-11T22:22:45;48.80;;;22.77;;
37299;SDS011;23184;51.902;12.836;2023-02-11T22:25:10;50.65;;;21.90;;
37299;SDS011;23184;51.902;12.836;2023-02-11T22:27:36;48.65;;;23.27;;
37299;SDS011;23184;51.902;12.836;2023-02-11T22:30:02;45.13;;;23.08;;
37299;SDS011;23184;51.902;12.836;2023-02-11T22:32:28;44.33;;;21.90;;
37299;SDS011;23184;51.902;12.836;2023-02-11T22:34:53;46.35;;;22.67;;
37299;SDS011;23184;51.902;12.836;2023-02-11T22:37:19;45.92;;;21.75;;
37299;SDS011;23184;51.902;12.836;2023-02-11T22:39:44;49.92;;;23.33;;
37299;SDS011;23184;51.902;12.836;2023-02-11T22:42:10;46.17;;;22.30;;
37299;SDS011;23184;51.902;12.836;2023-02-11T22:44:36;44.35;;;22.60;;
37299;SDS011;23184;51.902;12.836;2023-02-11T22:47:01;53.85;;;23.38;;
37299;SDS011;23184;51.902;12.836;2023-02-11T22:49:27;42.85;;;22.00;;
37299;SDS011;23184;51.902;12.836;2023-02-11T22:51:52;44.65;;;21.83;;
37299;SDS011;23184;51.902;12.836;2023-02-11T22:54:18;43.58;;;21.33;;
37299;SDS011;23184;51.902;12.836;2023-02-11T22:56:44;44.30;;;22.05;;
37299;SDS011;23184;51.902;12.836;2023-02-11T22:59:13;41.63;;;20.23;;
37299;SDS011;23184;51.902;12.836;2023-02-11T23:01:39;45.63;;;21.13;;
37299;SDS011;23184;51.902;12.836;2023-02-11T23:04:06;47.03;;;21.95;;
37299;SDS011;23184;51.902;12.836;2023-02-11T23:06:34;41.88;;;21.23;;
37299;SDS011;23184;51.902;12.836;2023-02-11T23:09:01;37.65;;;19.45;;
37299;SDS011;23184;51.902;12.836;2023-02-11T23:11:31;40.90;;;18.92;;